Time;durP1;ratioP1;P1;durP2;ratioP2;P2;SDS_P1;SDS_P2;PMS_P1;PMS_P2;Temp;Humidity;BMP_temperature;BMP_pressure;BME280_temperature;BME280_humidity;BME280_pressure;Samples;Min_cycle;Max_cycle;Signal;HPM_P1;HPM_P2
2021/01/20 00:00:49;;;;;;;16.13;15.10;;;6.50;99.90;;;;;;5101003;28;20477;-79
2021/01/20 00:03:16;;;;;;;16.20;15.00;;;6.60;99.90;;;;;;5099265;28;20461;-83
2021/01/20 00:05:44;;;;;;;15.90;14.80;;;6.60;99.90;;;;;;5101204;28;20510;-81
2021/01/20 00:08:10;;;;;;;15.40;14.40;;;6.60;99.90;;;;;;5099639;28;20462;-81
2021/01/20 00:10:37;;;;;;;15.40;14.30;;;6.70;99.90;;;;;;5103919;28;20792;-79
2021/01/20 00:13:05;;;;;;;15.37;14.33;;;6.70;99.90;;;;;;5107209;28;20456;-80
2021/01/20 00:15:32;;;;;;;16.93;15.70;;;6.70;99.90;;;;;;5095689;28;20462;-80
2021/01/20 00:17:58;;;;;;;17.90;16.50;;;6.60;99.90;;;;;;5098279;28;20523;-78
2021/01/20 00:20:24;;;;;;;17.10;15.77;;;6.60;99.90;;;;;;5102653;28;20991;-80
2021/01/20 00:22:51;;;;;;;16.47;15.40;;;6.50;99.90;;;;;;5100406;28;20462;-83
2021/01/20 00:25:18;;;;;;;17.67;16.37;;;6.50;99.90;;;;;;5102668;28;20880;-79
2021/01/20 00:27:44;;;;;;;16.57;15.47;;;6.50;99.90;;;;;;5095878;28;20455;-80
2021/01/20 00:30:13;;;;;;;17.17;15.67;;;6.50;99.90;;;;;;5100610;28;20476;-81
2021/01/20 00:32:39;;;;;;;16.90;15.20;;;6.50;99.90;;;;;;5094497;28;20507;-80
2021/01/20 00:35:07;;;;;;;16.73;15.53;;;6.50;99.90;;;;;;5101669;28;20488;-83
2021/01/20 00:37:34;;;;;;;15.77;14.70;;;6.50;99.90;;;;;;5092681;28;20453;-78
2021/01/20 00:40:01;;;;;;;16.53;15.43;;;6.50;99.90;;;;;;5102110;28;20456;-81
2021/01/20 00:42:29;;;;;;;17.43;16.13;;;6.50;99.90;;;;;;5097729;28;20551;-78
2021/01/20 00:44:55;;;;;;;17.13;15.73;;;6.60;99.90;;;;;;5108060;27;20476;-78
2021/01/20 00:47:22;;;;;;;16.57;15.43;;;6.60;99.90;;;;;;5096510;28;20467;-78
2021/01/20 00:49:49;;;;;;;17.37;16.07;;;6.60;99.90;;;;;;5103233;28;20481;-79
2021/01/20 00:52:15;;;;;;;17.20;15.70;;;6.60;99.90;;;;;;5107191;28;20464;-81
2021/01/20 00:54:42;;;;;;;17.67;16.17;;;6.60;99.90;;;;;;5101953;28;20457;-81
2021/01/20 00:57:08;;;;;;;16.70;15.43;;;6.70;99.90;;;;;;5099211;27;20455;-83
2021/01/20 00:59:34;;;;;;;16.47;15.20;;;6.70;99.90;;;;;;5106367;28;20506;-81
2021/01/20 01:02:00;;;;;;;16.50;15.47;;;6.80;99.90;;;;;;5101673;28;20481;-77
2021/01/20 01:04:27;;;;;;;18.57;16.57;;;6.90;99.90;;;;;;5097623;28;20470;-82
2021/01/20 01:06:54;;;;;;;17.13;15.83;;;6.90;99.90;;;;;;5102587;27;20449;-80
2021/01/20 01:09:20;;;;;;;16.97;15.73;;;6.90;99.90;;;;;;5105911;27;20529;-77
2021/01/20 01:11:46;;;;;;;16.57;15.53;;;6.80;99.90;;;;;;5110916;27;20462;-78
2021/01/20 01:14:13;;;;;;;17.53;16.07;;;6.80;99.90;;;;;;5107323;27;20470;-77
2021/01/20 01:16:41;;;;;;;16.37;15.27;;;6.80;99.90;;;;;;5100600;27;20956;-82
2021/01/20 01:19:08;;;;;;;17.83;16.13;;;6.80;99.90;;;;;;5105991;27;20459;-78
2021/01/20 01:21:36;;;;;;;16.43;15.20;;;6.80;99.90;;;;;;5095645;27;20492;-78
2021/01/20 01:24:03;;;;;;;16.50;15.23;;;6.80;99.90;;;;;;5093853;28;20457;-81
2021/01/20 01:26:29;;;;;;;16.03;14.90;;;6.90;99.90;;;;;;5104993;28;20473;-80
2021/01/20 01:28:55;;;;;;;17.13;15.83;;;6.90;99.90;;;;;;5107681;28;20495;-81
2021/01/20 01:31:24;;;;;;;15.77;14.27;;;7.00;99.90;;;;;;5099231;28;20462;-81
2021/01/20 01:33:50;;;;;;;16.73;15.47;;;7.00;99.90;;;;;;5102867;28;20470;-83
2021/01/20 01:36:17;;;;;;;16.17;14.87;;;7.00;99.90;;;;;;5103582;27;21033;-81
2021/01/20 01:38:44;;;;;;;16.67;15.57;;;7.10;99.90;;;;;;5099719;28;20543;-79
2021/01/20 01:41:11;;;;;;;15.80;14.70;;;7.10;99.90;;;;;;5103985;28;21016;-79
2021/01/20 01:43:38;;;;;;;16.10;15.00;;;7.10;99.90;;;;;;5100606;28;20469;-80
2021/01/20 01:46:04;;;;;;;15.80;14.50;;;7.10;99.90;;;;;;5101087;28;20831;-78
2021/01/20 01:48:31;;;;;;;16.90;15.80;;;7.00;99.90;;;;;;5098087;28;20512;-78
2021/01/20 01:50:57;;;;;;;16.70;15.60;;;7.00;99.90;;;;;;5106696;28;20522;-79
2021/01/20 01:53:24;;;;;;;15.57;14.67;;;6.90;99.90;;;;;;5103694;28;20507;-80
2021/01/20 01:55:52;;;;;;;15.80;14.70;;;6.90;99.90;;;;;;5105469;28;20458;-80
2021/01/20 01:58:18;;;;;;;16.80;15.60;;;6.90;99.90;;;;;;5102352;28;20460;-79
2021/01/20 02:00:44;;;;;;;15.33;14.33;;;7.00;99.90;;;;;;5102961;28;20478;-82
2021/01/20 02:03:11;;;;;;;16.57;15.47;;;7.00;99.90;;;;;;5104220;28;20520;-79
2021/01/20 02:05:37;;;;;;;16.17;15.13;;;7.00;99.90;;;;;;5095569;28;20791;-80
2021/01/20 02:08:07;;;;;;;15.67;14.67;;;7.10;99.90;;;;;;5102770;28;20535;-81
2021/01/20 02:10:34;;;;;;;16.60;15.40;;;7.10;99.90;;;;;;5105380;28;20467;-80
2021/01/20 02:13:29;;;;;;;15.87;14.90;;;7.20;99.90;;;;;;5099618;28;20523;-81
2021/01/20 02:16:03;;;;;;;16.03;15.13;;;7.20;99.90;;;;;;5090812;28;20465;-77
2021/01/20 02:18:33;;;;;;;16.33;15.43;;;7.30;99.90;;;;;;5100079;28;20462;-78
2021/01/20 02:21:33;;;;;;;16.23;15.23;;;7.30;99.90;;;;;;5103452;28;20855;-79
2021/01/20 02:24:01;;;;;;;15.40;14.50;;;7.40;99.90;;;;;;5099071;27;20509;-78
2021/01/20 02:26:38;;;;;;;15.80;14.80;;;7.40;99.90;;;;;;5097437;27;20455;-79
2021/01/20 02:29:24;;;;;;;15.47;14.57;;;7.40;99.90;;;;;;5102346;27;20982;-78
2021/01/20 02:31:52;;;;;;;15.73;14.83;;;7.40;99.90;;;;;;5106629;27;20960;-79
2021/01/20 02:34:22;;;;;;;16.20;15.20;;;7.40;99.90;;;;;;5107419;27;20452;-79
2021/01/20 02:36:50;;;;;;;16.90;15.80;;;7.40;99.90;;;;;;5104742;27;20461;-81
2021/01/20 02:39:18;;;;;;;15.83;14.80;;;7.50;99.90;;;;;;5111562;27;20466;-81
2021/01/20 02:41:44;;;;;;;16.77;15.67;;;7.50;99.90;;;;;;5110184;27;20866;-79
2021/01/20 02:44:11;;;;;;;15.33;14.43;;;7.50;99.90;;;;;;5100687;27;20462;-80
2021/01/20 02:46:38;;;;;;;16.47;15.43;;;7.50;99.90;;;;;;5109288;27;20478;-80
2021/01/20 02:49:06;;;;;;;16.57;15.40;;;7.50;99.90;;;;;;5102525;28;20478;-78
2021/01/20 02:51:41;;;;;;;16.03;15.10;;;7.60;99.90;;;;;;5103198;27;20511;-80
2021/01/20 02:54:10;;;;;;;16.23;15.13;;;7.60;99.90;;;;;;5101560;27;20490;-79
2021/01/20 02:56:38;;;;;;;15.93;14.70;;;7.70;99.90;;;;;;5108317;27;20487;-82
2021/01/20 02:59:06;;;;;;;15.60;14.80;;;7.70;99.90;;;;;;5103901;27;20457;-82
2021/01/20 03:01:34;;;;;;;17.10;15.77;;;7.70;99.90;;;;;;5110874;27;20485;-80
2021/01/20 03:04:03;;;;;;;16.53;15.40;;;7.80;99.90;;;;;;5097669;27;20483;-77
2021/01/20 03:06:32;;;;;;;16.57;15.47;;;7.80;99.90;;;;;;5106182;27;20461;-82
2021/01/20 03:08:59;;;;;;;16.00;15.10;;;7.90;99.90;;;;;;5099188;28;20475;-78
2021/01/20 03:11:26;;;;;;;16.80;15.70;;;8.00;99.90;;;;;;5101154;28;20507;-78
2021/01/20 03:13:54;;;;;;;15.50;14.60;;;8.00;99.90;;;;;;5115464;27;20541;-78
2021/01/20 03:16:25;;;;;;;16.13;15.20;;;8.10;99.90;;;;;;5110735;27;20463;-81
2021/01/20 03:18:51;;;;;;;16.10;15.20;;;8.10;99.90;;;;;;5099102;28;20466;-79
2021/01/20 03:21:19;;;;;;;16.30;15.40;;;8.10;99.90;;;;;;5109084;27;20749;-81
2021/01/20 03:23:46;;;;;;;16.60;15.57;;;8.10;99.90;;;;;;5105577;27;20489;-80
2021/01/20 03:26:13;;;;;;;16.10;15.20;;;8.10;99.90;;;;;;5104392;27;20483;-81
2021/01/20 03:28:39;;;;;;;17.60;16.40;;;8.20;99.90;;;;;;5102982;27;20456;-81
2021/01/20 03:31:06;;;;;;;17.87;16.47;;;8.30;99.90;;;;;;5102482;27;20841;-79
2021/01/20 03:33:32;;;;;;;16.87;15.77;;;8.40;99.90;;;;;;5111193;27;20489;-79
2021/01/20 03:35:59;;;;;;;17.17;16.07;;;8.40;99.90;;;;;;5098895;28;20459;-79
2021/01/20 03:38:25;;;;;;;16.20;15.30;;;8.50;99.90;;;;;;5096889;28;20467;-77
2021/01/20 03:40:53;;;;;;;16.80;15.60;;;8.50;99.90;;;;;;5109345;27;20493;-78
2021/01/20 03:43:19;;;;;;;16.67;15.63;;;8.50;99.90;;;;;;5100949;28;20459;-79
2021/01/20 03:45:45;;;;;;;16.20;15.13;;;8.50;99.90;;;;;;5105815;28;20457;-78
2021/01/20 03:48:13;;;;;;;16.80;15.73;;;8.40;99.90;;;;;;5104097;28;20461;-77
2021/01/20 03:50:39;;;;;;;17.03;15.73;;;8.40;99.90;;;;;;5096958;28;20507;-78
2021/01/20 03:53:06;;;;;;;16.23;15.33;;;8.40;99.90;;;;;;5105526;28;20813;-79
2021/01/20 03:55:33;;;;;;;17.13;15.93;;;8.40;99.90;;;;;;5110493;28;20470;-78
2021/01/20 03:58:00;;;;;;;16.20;15.10;;;8.40;99.90;;;;;;5110790;28;20447;-78
2021/01/20 04:00:27;;;;;;;16.00;14.80;;;8.30;99.90;;;;;;5101040;28;20797;-80
2021/01/20 04:02:53;;;;;;;16.57;15.60;;;8.30;99.90;;;;;;5102233;28;20869;-79
2021/01/20 04:05:19;;;;;;;16.43;15.33;;;8.30;99.90;;;;;;5103653;28;20464;-79
2021/01/20 04:07:46;;;;;;;16.37;15.40;;;8.40;99.90;;;;;;5098132;28;20872;-79
2021/01/20 04:10:14;;;;;;;15.90;15.00;;;8.50;99.90;;;;;;5106096;28;20463;-81
2021/01/20 04:12:40;;;;;;;17.07;15.97;;;8.50;99.90;;;;;;5097322;28;20515;-80
2021/01/20 04:15:09;;;;;;;16.20;15.30;;;8.50;99.90;;;;;;5103452;28;20470;-77
2021/01/20 04:17:36;;;;;;;16.60;15.60;;;8.60;99.90;;;;;;5104586;28;20460;-81
2021/01/20 04:20:05;;;;;;;16.03;15.13;;;8.60;99.90;;;;;;5109788;28;20821;-79
2021/01/20 04:22:32;;;;;;;16.07;14.93;;;8.70;99.90;;;;;;5099286;28;20990;-79
2021/01/20 04:24:59;;;;;;;16.17;15.27;;;8.70;99.90;;;;;;5102558;27;20820;-80
2021/01/20 04:27:25;;;;;;;16.17;15.13;;;8.70;99.90;;;;;;5102012;28;20487;-79
2021/01/20 04:29:51;;;;;;;16.73;15.40;;;8.70;99.90;;;;;;5113522;27;20586;-78
2021/01/20 04:32:19;;;;;;;17.10;15.90;;;8.80;99.90;;;;;;5105966;27;20872;-79
2021/01/20 04:34:46;;;;;;;16.33;15.23;;;8.80;99.90;;;;;;5108687;27;21032;-78
2021/01/20 04:37:13;;;;;;;24.23;16.37;;;8.70;99.90;;;;;;5105951;27;20464;-78
2021/01/20 04:39:39;;;;;;;16.70;15.47;;;8.60;99.90;;;;;;5105440;27;20472;-80
2021/01/20 04:42:06;;;;;;;16.50;15.33;;;8.50;99.90;;;;;;5097889;27;20540;-80
2021/01/20 04:44:34;;;;;;;16.20;15.20;;;8.50;99.90;;;;;;5109688;27;20517;-79
2021/01/20 04:47:02;;;;;;;16.10;15.20;;;8.50;99.90;;;;;;5096739;28;20859;-79
2021/01/20 04:49:32;;;;;;;16.23;15.23;;;8.40;99.90;;;;;;5111063;27;21011;-78
2021/01/20 04:52:00;;;;;;;16.63;15.47;;;8.40;99.90;;;;;;5101179;27;20802;-78
2021/01/20 04:54:27;;;;;;;15.47;14.67;;;8.30;99.90;;;;;;5108108;27;20506;-78
2021/01/20 04:56:56;;;;;;;16.00;15.00;;;8.30;99.90;;;;;;5101638;27;20460;-78
2021/01/20 04:59:24;;;;;;;15.23;14.33;;;8.30;99.90;;;;;;5113108;27;20472;-79
2021/01/20 05:01:51;;;;;;;16.07;15.17;;;8.20;99.90;;;;;;5104142;27;20529;-79
2021/01/20 05:04:19;;;;;;;16.77;15.80;;;8.20;99.90;;;;;;5097822;27;20458;-78
2021/01/20 05:06:46;;;;;;;16.70;15.70;;;8.20;99.90;;;;;;5106029;27;20834;-78
2021/01/20 05:09:12;;;;;;;16.60;15.60;;;8.20;99.90;;;;;;5103994;27;20467;-78
2021/01/20 05:11:40;;;;;;;16.20;15.20;;;8.10;99.90;;;;;;5107106;27;20462;-79
2021/01/20 05:14:17;;;;;;;16.40;15.40;;;8.10;99.90;;;;;;5109341;27;20461;-78
2021/01/20 05:16:49;;;;;;;15.63;14.73;;;8.10;99.90;;;;;;5099249;28;20800;-78
2021/01/20 05:19:15;;;;;;;15.80;14.90;;;8.10;99.90;;;;;;5104908;27;20506;-78
2021/01/20 05:22:04;;;;;;;16.70;15.60;;;8.10;99.90;;;;;;5106541;27;20490;-78
2021/01/20 05:24:32;;;;;;;16.00;15.00;;;8.10;99.90;;;;;;5104551;27;20468;-78
2021/01/20 05:27:00;;;;;;;16.07;15.17;;;8.10;99.90;;;;;;5101198;27;20497;-78
2021/01/20 05:29:27;;;;;;;16.87;15.50;;;8.20;99.90;;;;;;5097602;27;21018;-78
2021/01/20 05:31:53;;;;;;;16.33;15.43;;;8.30;99.90;;;;;;5107829;27;20460;-78
2021/01/20 05:34:28;;;;;;;15.27;14.37;;;8.40;99.90;;;;;;5104428;27;20532;-79
2021/01/20 05:37:07;;;;;;;16.20;15.20;;;8.40;99.90;;;;;;5104598;27;20462;-78
2021/01/20 05:39:35;;;;;;;16.10;15.20;;;8.50;99.90;;;;;;5106765;27;20468;-78
2021/01/20 05:42:05;;;;;;;15.67;14.80;;;8.60;99.90;;;;;;5105634;27;20509;-78
2021/01/20 05:44:32;;;;;;;16.30;15.10;;;8.60;99.90;;;;;;5104173;27;20828;-78
2021/01/20 05:46:58;;;;;;;16.13;15.23;;;8.60;99.90;;;;;;5110721;27;20455;-77
2021/01/20 05:49:26;;;;;;;15.80;14.90;;;8.70;99.90;;;;;;5098138;27;20525;-78
2021/01/20 05:51:53;;;;;;;15.13;14.37;;;8.70;99.90;;;;;;5111140;27;20470;-78
2021/01/20 05:54:35;;;;;;;16.07;15.23;;;8.70;99.90;;;;;;5095715;27;20983;-78
2021/01/20 05:57:15;;;;;;;16.43;15.63;;;8.70;99.90;;;;;;5107200;27;20514;-78
2021/01/20 05:59:42;;;;;;;15.87;14.97;;;8.70;99.90;;;;;;5105895;27;20463;-78
2021/01/20 06:02:10;;;;;;;15.07;14.30;;;8.80;99.90;;;;;;5101367;27;20491;-77
2021/01/20 06:04:39;;;;;;;16.63;15.63;;;8.70;99.90;;;;;;5111928;27;20448;-77
2021/01/20 06:07:06;;;;;;;15.80;14.93;;;8.80;99.90;;;;;;5105342;27;21105;-78
2021/01/20 06:09:38;;;;;;;15.80;15.00;;;8.80;99.90;;;;;;5107289;27;20801;-78
2021/01/20 06:12:06;;;;;;;15.20;14.43;;;8.90;99.90;;;;;;5104652;27;21029;-78
2021/01/20 06:14:35;;;;;;;15.70;14.60;;;8.90;99.90;;;;;;5099404;27;20460;-78
2021/01/20 06:17:14;;;;;;;15.77;14.97;;;8.90;99.90;;;;;;5101725;27;20545;-78
2021/01/20 06:19:46;;;;;;;16.10;15.17;;;8.80;99.90;;;;;;5097878;28;21016;-78
2021/01/20 06:22:15;;;;;;;15.90;15.10;;;8.80;99.90;;;;;;5105693;27;20492;-78
2021/01/20 06:24:47;;;;;;;16.30;15.40;;;8.70;99.90;;;;;;5105178;28;21010;-79
2021/01/20 06:27:19;;;;;;;17.27;16.17;;;8.60;99.90;;;;;;5101856;28;20455;-78
2021/01/20 06:29:52;;;;;;;18.27;17.07;;;8.50;99.90;;;;;;5100930;28;20484;-79
2021/01/20 06:32:22;;;;;;;16.00;15.20;;;8.40;99.90;;;;;;5110678;27;20457;-79
2021/01/20 06:34:54;;;;;;;17.87;16.87;;;8.30;99.90;;;;;;5104567;28;20464;-79
2021/01/20 06:37:33;;;;;;;18.87;17.77;;;8.20;99.90;;;;;;5103910;27;20463;-78
2021/01/20 06:40:00;;;;;;;19.07;18.07;;;8.10;99.90;;;;;;5100421;28;20459;-80
2021/01/20 06:42:31;;;;;;;20.13;18.93;;;8.00;99.90;;;;;;5103553;28;20497;-78
2021/01/20 06:45:16;;;;;;;22.40;20.80;;;8.00;99.90;;;;;;5100703;28;20472;-77
2021/01/20 06:48:05;;;;;;;20.70;19.50;;;7.90;99.90;;;;;;5093965;28;20470;-78
2021/01/20 06:50:32;;;;;;;20.60;19.40;;;7.80;99.90;;;;;;5099634;28;20985;-78
2021/01/20 06:53:03;;;;;;;21.53;20.13;;;7.80;99.90;;;;;;5098298;28;20457;-80
2021/01/20 06:55:35;;;;;;;21.63;20.33;;;7.70;99.90;;;;;;5097857;28;20518;-79
2021/01/20 06:58:16;;;;;;;22.23;20.63;;;7.70;99.90;;;;;;5099705;28;20464;-77
2021/01/20 07:00:42;;;;;;;22.27;20.40;;;7.60;99.90;;;;;;5101719;27;20472;-77
2021/01/20 07:03:09;;;;;;;24.17;22.37;;;7.60;99.90;;;;;;5093843;28;20835;-77
2021/01/20 07:05:37;;;;;;;23.17;21.47;;;7.50;99.90;;;;;;5095855;28;21414;-80
2021/01/20 07:08:06;;;;;;;23.37;21.87;;;7.50;99.90;;;;;;5095403;28;20464;-80
2021/01/20 07:11:05;;;;;;;23.77;22.17;;;7.60;99.90;;;;;;5091322;28;20488;-78
2021/01/20 07:13:37;;;;;;;21.50;20.20;;;7.50;99.90;;;;;;5090374;28;20458;-81
2021/01/20 07:16:06;;;;;;;21.43;20.13;;;7.50;99.90;;;;;;5101924;27;20455;-80
2021/01/20 07:18:33;;;;;;;21.37;20.07;;;7.40;99.90;;;;;;5101390;28;20871;-78
2021/01/20 07:21:00;;;;;;;21.47;20.20;;;7.40;99.90;;;;;;5095710;28;20468;-80
2021/01/20 07:23:26;;;;;;;19.70;18.60;;;7.50;99.90;;;;;;5096337;27;20820;-81
2021/01/20 07:25:54;;;;;;;19.03;18.03;;;7.50;99.90;;;;;;5094611;27;20486;-81
2021/01/20 07:28:24;;;;;;;18.50;17.50;;;7.50;99.90;;;;;;5100377;28;20489;-79
2021/01/20 07:31:07;;;;;;;17.93;16.80;;;7.50;99.90;;;;;;5099461;27;20488;-79
2021/01/20 07:33:34;;;;;;;16.40;15.50;;;7.60;99.90;;;;;;5109566;27;20467;-77
2021/01/20 07:36:16;;;;;;;16.07;15.17;;;7.70;99.90;;;;;;5104658;27;20950;-79
2021/01/20 07:38:45;;;;;;;15.77;14.87;;;7.80;99.90;;;;;;5099100;28;20551;-82
2021/01/20 07:41:20;;;;;;;15.60;14.67;;;7.90;99.90;;;;;;5107437;27;20511;-81
2021/01/20 07:43:47;;;;;;;16.03;15.13;;;8.00;99.90;;;;;;5100546;28;20458;-78
2021/01/20 07:46:20;;;;;;;15.53;14.73;;;8.10;99.90;;;;;;5097462;28;20829;-80
2021/01/20 07:48:46;;;;;;;16.73;15.63;;;8.10;99.90;;;;;;5102633;28;20515;-78
2021/01/20 07:51:21;;;;;;;15.90;15.00;;;8.20;99.90;;;;;;5106189;28;20513;-79
2021/01/20 07:54:00;;;;;;;16.27;15.23;;;8.20;99.90;;;;;;5104008;28;20461;-81
2021/01/20 07:56:27;;;;;;;16.57;15.57;;;8.20;99.90;;;;;;5102867;28;21006;-81
2021/01/20 07:58:54;;;;;;;15.93;15.03;;;8.20;99.90;;;;;;5103414;28;20798;-79
2021/01/20 08:01:31;;;;;;;15.80;14.80;;;8.30;99.90;;;;;;5104252;28;20479;-82
2021/01/20 08:03:58;;;;;;;16.47;15.57;;;8.40;99.90;;;;;;5098921;28;20979;-81
2021/01/20 08:06:25;;;;;;;15.80;15.00;;;8.30;99.90;;;;;;5099561;28;20497;-82
2021/01/20 08:08:54;;;;;;;16.40;15.50;;;8.50;99.90;;;;;;5100841;28;20459;-81
2021/01/20 08:11:20;;;;;;;15.80;15.00;;;8.50;99.90;;;;;;5098423;28;20982;-77
2021/01/20 08:13:48;;;;;;;15.80;14.80;;;8.60;99.90;;;;;;5100087;28;20461;-80
2021/01/20 08:16:15;;;;;;;15.80;15.00;;;8.50;99.90;;;;;;5102875;28;20456;-77
2021/01/20 08:18:46;;;;;;;15.70;14.83;;;8.50;99.90;;;;;;5102190;28;20830;-81
2021/01/20 08:21:13;;;;;;;15.30;14.50;;;8.50;99.90;;;;;;5095101;28;20484;-79
2021/01/20 08:23:49;;;;;;;15.37;14.57;;;8.40;99.90;;;;;;5100187;28;20457;-79
2021/01/20 08:26:22;;;;;;;16.87;15.50;;;8.40;99.90;;;;;;5099956;28;21028;-82
2021/01/20 08:29:10;;;;;;;16.13;15.27;;;8.50;99.90;;;;;;5101706;28;20481;-79
2021/01/20 08:31:38;;;;;;;15.90;14.80;;;8.50;99.90;;;;;;5095737;28;20816;-78
2021/01/20 08:34:20;;;;;;;16.53;15.53;;;8.50;99.90;;;;;;5094290;28;20626;-79
2021/01/20 08:37:08;;;;;;;17.20;15.90;;;8.50;99.90;;;;;;5110461;28;20515;-83
2021/01/20 08:39:36;;;;;;;16.90;15.67;;;8.50;99.90;;;;;;5098014;28;20470;-79
2021/01/20 08:42:17;;;;;;;16.70;15.70;;;8.50;99.90;;;;;;5105809;28;20902;-82
2021/01/20 08:45:05;;;;;;;17.10;16.20;;;8.50;99.90;;;;;;5100902;28;21024;-79
2021/01/20 08:47:35;;;;;;;16.83;15.80;;;8.50;99.90;;;;;;5107554;28;20456;-83
2021/01/20 08:50:03;;;;;;;16.73;15.83;;;8.50;99.90;;;;;;5105262;28;21009;-83
2021/01/20 08:52:41;;;;;;;16.10;15.30;;;8.50;99.90;;;;;;5098817;28;20454;-81
2021/01/20 08:55:19;;;;;;;15.83;15.03;;;8.60;99.90;;;;;;5094673;28;20965;-81
2021/01/20 08:57:45;;;;;;;16.40;15.50;;;8.80;99.90;;;;;;5097516;28;20522;-83
2021/01/20 09:00:13;;;;;;;15.80;15.00;;;8.80;99.90;;;;;;5096022;28;20819;-80
2021/01/20 09:02:39;;;;;;;16.97;15.97;;;8.90;99.90;;;;;;5101219;28;20525;-78
2021/01/20 09:05:08;;;;;;;16.30;15.40;;;8.90;99.90;;;;;;5094131;28;20456;-79
2021/01/20 09:07:34;;;;;;;16.77;15.87;;;8.80;99.90;;;;;;5098441;28;20981;-80
2021/01/20 09:10:00;;;;;;;16.70;15.80;;;8.80;99.90;;;;;;5097707;27;20927;-78
2021/01/20 09:12:27;;;;;;;16.47;15.63;;;8.90;99.90;;;;;;5108122;27;20471;-81
2021/01/20 09:14:53;;;;;;;16.90;15.90;;;8.90;99.90;;;;;;5103116;27;20942;-79
2021/01/20 09:17:21;;;;;;;16.83;15.90;;;8.90;99.90;;;;;;5104268;27;20459;-79
2021/01/20 09:19:47;;;;;;;17.10;16.20;;;8.80;99.90;;;;;;5101020;27;20556;-80
2021/01/20 09:22:15;;;;;;;16.53;15.63;;;8.60;99.90;;;;;;5108029;27;20553;-81
2021/01/20 09:24:41;;;;;;;17.03;16.00;;;8.50;99.90;;;;;;5105773;28;20465;-78
2021/01/20 09:27:07;;;;;;;17.03;16.03;;;8.50;99.90;;;;;;5103944;28;20975;-78
2021/01/20 09:29:34;;;;;;;17.63;16.63;;;8.50;99.90;;;;;;5102321;28;20483;-82
2021/01/20 09:32:01;;;;;;;16.73;15.83;;;8.50;99.90;;;;;;5102950;27;20450;-80
2021/01/20 09:34:28;;;;;;;17.97;16.87;;;8.50;99.90;;;;;;5099878;27;20472;-80
2021/01/20 09:36:56;;;;;;;17.60;16.53;;;8.50;99.90;;;;;;5101871;27;20946;-80
2021/01/20 09:39:24;;;;;;;18.03;16.93;;;8.60;99.90;;;;;;5099477;28;20459;-79
2021/01/20 09:41:51;;;;;;;18.30;17.20;;;8.60;99.90;;;;;;5097575;28;20489;-78
2021/01/20 09:44:17;;;;;;;18.37;17.17;;;8.60;99.90;;;;;;5099926;28;20823;-79
2021/01/20 09:46:43;;;;;;;18.20;17.10;;;8.70;99.90;;;;;;5100121;28;20455;-79
2021/01/20 09:49:09;;;;;;;18.00;17.00;;;8.60;99.90;;;;;;5105064;28;20471;-79
2021/01/20 09:51:37;;;;;;;18.50;17.43;;;8.60;99.90;;;;;;5101936;28;20957;-80
2021/01/20 09:54:03;;;;;;;16.97;15.97;;;8.50;99.90;;;;;;5098357;28;20462;-83
2021/01/20 09:56:31;;;;;;;17.10;16.20;;;8.40;99.90;;;;;;5102783;28;20830;-83
2021/01/20 09:58:58;;;;;;;19.00;17.10;;;8.40;99.90;;;;;;5096780;28;20465;-79
2021/01/20 10:01:24;;;;;;;17.27;16.13;;;8.40;99.90;;;;;;5105413;28;20473;-79
2021/01/20 10:03:51;;;;;;;17.07;15.83;;;8.40;99.90;;;;;;5102527;28;20449;-81
2021/01/20 10:06:18;;;;;;;17.97;16.37;;;8.40;99.90;;;;;;5098463;28;20461;-81
2021/01/20 10:08:44;;;;;;;19.27;17.50;;;8.40;99.90;;;;;;5102308;28;20463;-81
2021/01/20 10:11:10;;;;;;;28.63;19.30;;;8.40;99.90;;;;;;5100229;28;20460;-78
2021/01/20 10:13:37;;;;;;;29.37;16.90;;;8.30;99.90;;;;;;5103364;28;20818;-82
2021/01/20 10:16:04;;;;;;;20.87;17.03;;;8.30;99.90;;;;;;5098696;28;20469;-81
2021/01/20 10:18:31;;;;;;;17.50;16.50;;;8.40;99.90;;;;;;5101526;28;20513;-81
2021/01/20 10:20:59;;;;;;;17.23;16.33;;;8.30;99.90;;;;;;5099895;28;20471;-80
2021/01/20 10:23:27;;;;;;;18.73;17.17;;;8.40;99.90;;;;;;5093767;28;20489;-79
2021/01/20 10:25:54;;;;;;;17.80;16.47;;;8.40;99.90;;;;;;5103900;28;20483;-82
2021/01/20 10:28:20;;;;;;;18.40;17.10;;;8.40;99.90;;;;;;5106563;28;20496;-79
2021/01/20 10:30:49;;;;;;;19.10;17.47;;;8.40;99.90;;;;;;5100503;28;20527;-80
2021/01/20 10:33:16;;;;;;;20.07;17.13;;;8.40;99.90;;;;;;5102662;28;20512;-82
2021/01/20 10:35:42;;;;;;;19.97;17.37;;;8.30;99.90;;;;;;5101687;28;20490;-81
2021/01/20 10:38:08;;;;;;;20.80;16.90;;;8.40;99.90;;;;;;5108602;27;20468;-82
2021/01/20 10:40:35;;;;;;;18.40;17.10;;;8.40;99.90;;;;;;5095388;28;20832;-85
2021/01/20 10:43:02;;;;;;;18.80;17.00;;;8.50;99.90;;;;;;5091705;28;21010;-82
2021/01/20 10:45:29;;;;;;;26.60;17.63;;;8.70;99.90;;;;;;5096402;28;20922;-84
2021/01/20 10:47:56;;;;;;;16.80;15.77;;;8.90;99.90;;;;;;5085828;28;20570;-83
2021/01/20 10:50:23;;;;;;;17.73;16.53;;;9.20;99.90;;;;;;5101648;28;20925;-82
2021/01/20 10:52:49;;;;;;;18.07;16.97;;;9.40;99.90;;;;;;5095517;28;20570;-80
2021/01/20 10:55:16;;;;;;;17.63;16.47;;;9.70;99.90;;;;;;5093209;28;20468;-80
2021/01/20 10:57:42;;;;;;;19.77;16.63;;;9.80;99.90;;;;;;5095698;28;20446;-80
2021/01/20 11:00:09;;;;;;;18.67;17.47;;;10.00;99.90;;;;;;5096922;28;20791;-79
2021/01/20 11:02:36;;;;;;;18.03;16.93;;;10.20;99.90;;;;;;5093585;28;20500;-82
2021/01/20 11:05:04;;;;;;;19.07;17.87;;;10.20;99.90;;;;;;5104748;27;20461;-79
2021/01/20 11:07:30;;;;;;;18.33;17.10;;;10.20;99.90;;;;;;5094040;28;20459;-82
2021/01/20 11:09:58;;;;;;;19.17;17.53;;;10.30;99.90;;;;;;5105643;27;21050;-82
2021/01/20 11:12:25;;;;;;;18.80;17.40;;;10.40;99.90;;;;;;5099348;28;20837;-79
2021/01/20 11:14:51;;;;;;;21.60;16.70;;;10.40;99.90;;;;;;5105001;27;20465;-81
2021/01/20 11:17:17;;;;;;;17.73;16.57;;;10.40;99.90;;;;;;5100143;27;20465;-81
2021/01/20 11:19:43;;;;;;;18.60;17.50;;;10.40;99.90;;;;;;5100173;27;20457;-82
2021/01/20 11:22:11;;;;;;;18.73;17.43;;;10.40;99.90;;;;;;5093645;28;20481;-82
2021/01/20 11:24:37;;;;;;;18.50;17.23;;;10.40;99.90;;;;;;5103638;27;20461;-81
2021/01/20 11:27:04;;;;;;;19.00;17.70;;;10.40;99.90;;;;;;5100308;28;20485;-81
2021/01/20 11:29:30;;;;;;;18.10;17.07;;;10.50;99.90;;;;;;5112828;27;20485;-81
2021/01/20 11:31:57;;;;;;;17.63;16.53;;;10.40;99.90;;;;;;5095770;28;20484;-81
2021/01/20 11:34:24;;;;;;;18.20;17.10;;;10.50;99.90;;;;;;5103035;27;20472;-79
2021/01/20 11:36:51;;;;;;;18.50;17.30;;;10.40;99.90;;;;;;5104608;27;20525;-80
2021/01/20 11:39:18;;;;;;;18.03;16.93;;;10.40;99.90;;;;;;5103281;27;20470;-79
2021/01/20 11:41:44;;;;;;;21.30;19.60;;;10.60;99.90;;;;;;5105894;27;20562;-80
2021/01/20 11:44:10;;;;;;;20.03;18.47;;;10.50;99.90;;;;;;5104326;27;20509;-82
2021/01/20 11:46:36;;;;;;;21.97;20.10;;;10.50;99.90;;;;;;5109849;28;20464;-81
2021/01/20 11:49:09;;;;;;;18.37;17.17;;;10.70;99.90;;;;;;5104736;27;20564;-79
2021/01/20 11:51:38;;;;;;;20.10;18.70;;;10.90;99.90;;;;;;5110138;28;20467;-82
2021/01/20 11:54:05;;;;;;;18.00;16.90;;;10.90;99.90;;;;;;5102636;28;20465;-81
2021/01/20 11:56:32;;;;;;;18.57;17.40;;;11.00;99.90;;;;;;5108499;28;20832;-80
2021/01/20 11:58:59;;;;;;;18.90;17.60;;;11.10;99.90;;;;;;5106426;28;20470;-80
2021/01/20 12:01:31;;;;;;;19.00;17.67;;;11.20;99.90;;;;;;5093494;28;20464;-79
2021/01/20 12:03:57;;;;;;;18.73;17.63;;;11.30;99.90;;;;;;5104538;27;20454;-79
2021/01/20 12:06:25;;;;;;;18.30;17.30;;;11.20;99.90;;;;;;5105557;28;20545;-81
2021/01/20 12:08:51;;;;;;;18.97;17.80;;;11.30;99.90;;;;;;5104569;28;20541;-81
2021/01/20 12:11:18;;;;;;;18.90;17.17;;;11.20;99.90;;;;;;5094966;28;20488;-80
2021/01/20 12:13:45;;;;;;;17.97;16.87;;;11.30;99.90;;;;;;5097934;28;20457;-80
2021/01/20 12:16:12;;;;;;;17.77;16.60;;;11.30;99.90;;;;;;5099137;28;20457;-79
2021/01/20 12:18:38;;;;;;;18.60;17.40;;;11.30;99.90;;;;;;5106921;28;20474;-81
2021/01/20 12:21:05;;;;;;;20.20;18.93;;;11.20;99.90;;;;;;5109073;28;20465;-80
2021/01/20 12:23:31;;;;;;;19.27;17.93;;;11.10;99.90;;;;;;5100020;28;20523;-82
2021/01/20 12:25:59;;;;;;;19.60;18.17;;;11.20;99.90;;;;;;5091609;28;21029;-79
2021/01/20 12:28:27;;;;;;;19.67;18.37;;;11.30;99.90;;;;;;5097760;28;20798;-83
2021/01/20 12:30:56;;;;;;;19.20;18.00;;;11.30;99.90;;;;;;5101721;28;20488;-80
2021/01/20 12:33:22;;;;;;;21.03;19.53;;;11.30;99.90;;;;;;5102739;28;20948;-82
2021/01/20 12:35:48;;;;;;;18.70;17.43;;;11.30;99.90;;;;;;5093098;28;20954;-80
2021/01/20 12:38:14;;;;;;;18.30;17.30;;;11.30;99.90;;;;;;5092521;28;20523;-82
2021/01/20 12:40:41;;;;;;;18.27;17.10;;;11.30;99.90;;;;;;5101894;28;20465;-82
2021/01/20 12:43:07;;;;;;;18.70;17.40;;;11.30;99.90;;;;;;5099864;28;20493;-81